Terminal Aerodrome Forecast
Issued by NWS

Home | Current Version | Previous Version | Text Only | Print | Product List | Glossary On
Versions: 1 2 3 4 5 6 7 8 9 10 11 12 13 14 15 16 17 18 19 20
188
FTUS46 KMTR 060523
TAFMRY
TAF
KMRY 060523Z 0606/0706 14005KT P6SM FEW011 SCT150
      TEMPO 0607/0611 5SM BR SCT008 BKN011
     FM061400 16010KT P6SM SCT006
     FM061800 30008KT P6SM FEW150
     FM070300 24004KT P6SM FEW150=

USA.gov is the U.S. government's official web portal to all federal, state and local government web resources and services.